Woodleaf, California
Current Conditions -  °F | °C
As of 8:00 PM on Saturday 24 Jan 2015 (Local Time) from KGOO Reporting Station
Clear Clear  
Wind Chill: 66°   Ceiling: Unl
Heat Index: 66°   Visibility: 10mi
Dew Point: 25°   Wind: 9mph
Humidity: 21%   Direction: 80°E
Pressure: 30.21"   Gusts: 16mph
Location:  39.4476°N, 121.176°W
Report Text: KGOO 250400Z AUTO 08008G14KT 050V110 10SM CLR 19/M04 A3021 RMK AO1
Loading
Personal Weather Stations






























Interactive Weather Map New forecast layout! Learn more

10-Day Weather Forecast

Advertisements
Track Severe Weather on mobile